createdAt,value
2023-04-12T00:00:54.621Z,15.30
2023-04-12T00:02:07.656Z,14.00
2023-04-12T00:03:11.051Z,13.90
2023-04-12T00:04:17.353Z,14.80
2023-04-12T00:05:22.847Z,16.00
2023-04-12T00:06:25.778Z,15.50
2023-04-12T00:07:27.961Z,14.90
2023-04-12T00:08:30.058Z,14.50
2023-04-12T00:09:33.899Z,15.70
2023-04-12T00:10:36.556Z,13.80
2023-04-12T00:11:39.228Z,15.80
2023-04-12T00:12:47.813Z,13.45
2023-04-12T00:13:49.943Z,14.90
2023-04-12T00:14:53.085Z,16.10
2023-04-12T00:15:56.332Z,15.40
2023-04-12T00:16:59.160Z,15.80
2023-04-12T00:18:01.258Z,15.20
2023-04-12T00:19:04.551Z,15.00
2023-04-12T00:20:08.604Z,14.90
2023-04-12T00:21:11.244Z,13.60
2023-04-12T00:22:15.272Z,14.90
2023-04-12T00:23:17.812Z,14.90
2023-04-12T00:24:21.022Z,15.80
2023-04-12T00:25:23.157Z,14.00
2023-04-12T00:26:25.537Z,14.10
2023-04-12T00:27:27.590Z,15.56
2023-04-12T00:28:30.046Z,14.10
2023-04-12T00:29:33.236Z,12.80
2023-04-12T00:30:35.457Z,13.80
2023-04-12T00:31:37.767Z,13.90
2023-04-12T00:32:40.726Z,13.10
2023-04-12T00:34:53.537Z,14.40
2023-04-12T00:35:55.679Z,16.00
2023-04-12T00:36:59.256Z,12.50
2023-04-12T00:38:02.127Z,12.60
2023-04-12T00:39:04.896Z,12.90
2023-04-12T00:40:08.850Z,14.55
2023-04-12T00:41:12.418Z,13.20
2023-04-12T00:42:14.922Z,14.10
2023-04-12T00:43:17.108Z,12.10
2023-04-12T00:44:19.322Z,13.80
2023-04-12T00:45:21.840Z,13.30
2023-04-12T00:46:24.394Z,12.82
2023-04-12T00:47:28.122Z,13.10
2023-04-12T00:48:31.761Z,14.36
2023-04-12T00:49:34.641Z,13.10
2023-04-12T00:50:36.781Z,13.40
2023-04-12T00:51:39.358Z,14.20
2023-04-12T00:52:42.170Z,13.60
2023-04-12T00:53:45.477Z,14.64
2023-04-12T00:54:48.141Z,12.50
2023-04-12T00:55:50.626Z,14.50
2023-04-12T00:56:52.777Z,14.70
2023-04-12T00:57:55.393Z,12.50
2023-04-12T00:58:58.077Z,13.30
2023-04-12T01:00:00.320Z,14.27
2023-04-12T01:01:02.542Z,13.40
2023-04-12T01:02:05.507Z,13.36
2023-04-12T01:03:08.685Z,12.50
2023-04-12T01:04:12.331Z,13.50
2023-04-12T01:05:17.120Z,14.36
2023-04-12T01:06:31.448Z,12.90
2023-04-12T01:07:49.341Z,13.80
2023-04-12T01:09:22.053Z,13.60
2023-04-12T01:10:45.451Z,12.40
2023-04-12T01:13:29.972Z,13.00
2023-04-12T01:15:00.328Z,12.80
2023-04-12T01:16:07.713Z,11.30
2023-04-12T01:17:15.692Z,13.00
2023-04-12T01:18:21.136Z,12.30
2023-04-12T01:21:03.101Z,12.80
2023-04-12T01:22:18.512Z,12.30
2023-04-12T01:23:43.663Z,12.30
2023-04-12T01:25:15.254Z,12.20
2023-04-12T01:26:38.738Z,12.80
2023-04-12T01:27:49.500Z,12.00
2023-04-12T01:28:54.937Z,12.60
2023-04-12T01:29:57.740Z,12.10
2023-04-12T01:31:01.922Z,13.70
2023-04-12T01:32:05.483Z,11.50
2023-04-12T01:33:10.199Z,11.50
2023-04-12T01:34:13.588Z,11.00
2023-04-12T01:35:17.724Z,11.73
2023-04-12T01:36:22.494Z,12.40
2023-04-12T01:37:25.877Z,10.80
2023-04-12T01:38:29.537Z,10.90
2023-04-12T01:39:33.302Z,8.45
2023-04-12T01:40:36.547Z,10.70
2023-04-12T01:41:40.486Z,11.70
2023-04-12T01:42:42.665Z,11.10
2023-04-12T01:43:46.048Z,11.80
2023-04-12T01:44:50.277Z,9.60
2023-04-12T01:45:53.267Z,11.20
2023-04-12T01:46:56.530Z,11.50
2023-04-12T01:48:01.707Z,11.30
2023-04-12T01:49:06.014Z,11.60
2023-04-12T01:50:23.325Z,10.20
2023-04-12T01:53:05.412Z,3.20
2023-04-12T01:54:10.642Z,11.00
2023-04-12T01:55:14.637Z,11.10
2023-04-12T01:56:19.676Z,10.70
2023-04-12T01:57:22.152Z,13.00
2023-04-12T01:58:26.275Z,11.10
2023-04-12T01:59:31.693Z,11.10
2023-04-12T02:00:36.495Z,11.50
2023-04-12T02:01:38.837Z,11.90
2023-04-12T02:02:42.207Z,12.30
2023-04-12T02:03:45.785Z,11.00
2023-04-12T02:04:48.580Z,9.80
2023-04-12T02:05:52.015Z,10.90
2023-04-12T02:06:56.626Z,10.80
2023-04-12T02:08:01.692Z,11.20
2023-04-12T02:09:04.591Z,11.70
2023-04-12T02:10:14.321Z,9.40
2023-04-12T02:11:16.668Z,11.00
2023-04-12T02:12:19.806Z,9.20
2023-04-12T02:13:22.291Z,11.70
2023-04-12T02:14:24.591Z,10.80
2023-04-12T02:15:28.570Z,12.10
2023-04-12T02:16:31.340Z,10.60
2023-04-12T02:17:34.572Z,10.40
2023-04-12T02:18:36.980Z,10.50
2023-04-12T02:19:39.227Z,11.30
2023-04-12T02:20:42.032Z,11.50
2023-04-12T02:21:45.231Z,11.50
2023-04-12T02:22:47.468Z,8.50
2023-04-12T02:23:49.549Z,11.30
2023-04-12T02:24:51.822Z,10.30
2023-04-12T02:25:53.960Z,10.70
2023-04-12T02:26:58.576Z,10.50
2023-04-12T02:28:01.121Z,11.40
2023-04-12T02:29:04.817Z,10.80
2023-04-12T02:30:09.221Z,10.30
2023-04-12T02:31:11.826Z,11.60
2023-04-12T02:32:14.228Z,10.00
2023-04-12T02:33:16.509Z,10.30
2023-04-12T02:34:18.904Z,9.30
2023-04-12T02:35:23.008Z,9.40
2023-04-12T02:36:28.364Z,9.20
2023-04-12T02:37:30.819Z,11.10
2023-04-12T02:38:33.415Z,8.90
2023-04-12T02:39:37.264Z,9.00
2023-04-12T02:40:40.522Z,9.00
2023-04-12T02:41:43.597Z,9.82
2023-04-12T02:42:47.438Z,9.80
2023-04-12T02:43:50.655Z,9.73
2023-04-12T02:44:52.940Z,11.00
2023-04-12T02:45:55.170Z,10.00
2023-04-12T02:46:59.112Z,10.73
2023-04-12T02:48:02.050Z,10.80
2023-04-12T02:49:04.768Z,10.60
2023-04-12T02:50:09.584Z,9.90
2023-04-12T02:51:13.811Z,9.60
2023-04-12T02:52:16.967Z,10.20
2023-04-12T02:53:21.083Z,11.60
2023-04-12T02:54:25.314Z,12.20
2023-04-12T02:55:29.528Z,9.50
2023-04-12T02:56:34.861Z,10.18
2023-04-12T02:57:39.473Z,10.90
2023-04-12T02:58:42.719Z,11.80
2023-04-12T02:59:46.830Z,11.60
2023-04-12T03:00:58.328Z,11.50
2023-04-12T03:02:02.775Z,12.50
2023-04-12T03:03:07.017Z,11.50
2023-04-12T03:04:09.927Z,11.70
2023-04-12T03:05:17.661Z,12.30
2023-04-12T03:06:20.185Z,11.10
2023-04-12T03:07:22.829Z,11.60
2023-04-12T03:08:27.659Z,12.00
2023-04-12T03:09:33.370Z,11.80
2023-04-12T03:10:36.271Z,12.60
2023-04-12T03:11:38.947Z,9.70
2023-04-12T03:12:41.827Z,9.45
2023-04-12T03:13:45.959Z,10.30
2023-04-12T03:14:48.318Z,11.90
2023-04-12T03:16:06.211Z,11.00
2023-04-12T03:17:09.613Z,10.70
2023-04-12T03:18:12.216Z,10.10
2023-04-12T03:19:19.328Z,10.60
2023-04-12T03:20:23.994Z,11.30
2023-04-12T03:21:29.168Z,11.10
2023-04-12T03:22:32.634Z,11.60
2023-04-12T03:23:35.259Z,10.36
2023-04-12T03:24:39.178Z,11.60
2023-04-12T03:25:42.703Z,11.30
2023-04-12T03:27:05.048Z,11.20
2023-04-12T03:28:08.858Z,9.80
2023-04-12T03:29:25.214Z,10.80
2023-04-12T03:30:29.824Z,10.00
2023-04-12T03:32:43.978Z,12.50
2023-04-12T03:33:46.834Z,11.30
2023-04-12T03:34:50.860Z,11.40
2023-04-12T03:35:54.894Z,11.30
2023-04-12T03:36:59.954Z,10.50
2023-04-12T03:38:04.020Z,11.90
2023-04-12T03:39:06.693Z,10.40
2023-04-12T03:40:11.765Z,11.10
2023-04-12T03:41:16.930Z,11.50
2023-04-12T03:42:32.227Z,10.40
2023-04-12T03:43:24.562Z,9.90
2023-04-12T03:44:26.706Z,10.30
2023-04-12T03:45:30.438Z,11.70
2023-04-12T03:46:34.559Z,8.60
2023-04-12T03:47:38.768Z,10.80
2023-04-12T03:48:41.626Z,10.10
2023-04-12T03:49:51.648Z,9.55
2023-04-12T03:50:49.965Z,11.50
2023-04-12T03:51:53.991Z,10.40
2023-04-12T03:52:56.163Z,7.50
2023-04-12T03:54:00.840Z,9.70
2023-04-12T03:55:03.211Z,8.55
2023-04-12T03:56:07.359Z,9.40
2023-04-12T03:57:09.587Z,11.50
2023-04-12T03:58:14.424Z,8.50
2023-04-12T03:59:18.299Z,10.20
2023-04-12T04:00:20.804Z,8.50
2023-04-12T04:01:40.736Z,6.60
2023-04-12T04:02:43.014Z,10.20
2023-04-12T04:03:46.705Z,12.20
2023-04-12T04:04:54.087Z,9.60
2023-04-12T04:05:58.196Z,8.90
2023-04-12T04:07:02.316Z,8.90
2023-04-12T04:08:08.561Z,9.00
2023-04-12T04:09:15.455Z,9.00
2023-04-12T04:10:18.306Z,9.45
2023-04-12T04:11:20.594Z,8.60
2023-04-12T04:12:26.359Z,8.30
2023-04-12T04:13:30.043Z,9.10
2023-04-12T04:14:34.049Z,8.40
2023-04-12T04:15:37.290Z,8.50
2023-04-12T04:16:40.798Z,7.70
2023-04-12T04:17:43.637Z,8.50
2023-04-12T04:18:47.156Z,7.50
2023-04-12T04:19:50.683Z,7.90
2023-04-12T04:20:54.518Z,7.70
2023-04-12T04:21:56.954Z,7.40
2023-04-12T04:22:59.234Z,7.30
2023-04-12T04:24:01.707Z,8.30
2023-04-12T04:25:06.448Z,7.50
2023-04-12T04:26:11.469Z,8.30
2023-04-12T04:27:15.597Z,8.50
2023-04-12T04:28:17.678Z,7.20
2023-04-12T04:29:20.242Z,8.60
2023-04-12T04:30:22.398Z,7.30
2023-04-12T04:31:24.965Z,7.70
2023-04-12T04:32:29.129Z,8.20
2023-04-12T04:33:32.902Z,8.00
2023-04-12T04:34:37.106Z,6.80
2023-04-12T04:35:42.022Z,8.20
2023-04-12T04:36:55.212Z,7.50
2023-04-12T04:37:59.265Z,7.80
2023-04-12T04:39:02.854Z,4.00
2023-04-12T04:40:14.334Z,7.40
2023-04-12T04:41:17.531Z,7.00
2023-04-12T04:42:21.792Z,7.60
2023-04-12T04:43:30.102Z,7.60
2023-04-12T04:44:34.621Z,5.70
2023-04-12T04:45:38.786Z,7.60
2023-04-12T04:46:41.637Z,7.00
2023-04-12T04:47:44.103Z,6.80
2023-04-12T04:48:47.802Z,7.20
2023-04-12T04:49:50.182Z,6.60
2023-04-12T04:50:55.460Z,7.60
2023-04-12T04:52:00.196Z,6.50
2023-04-12T04:53:03.252Z,6.50
2023-04-12T04:54:07.275Z,6.70
2023-04-12T04:55:11.555Z,7.09
2023-04-12T04:56:15.299Z,6.30
2023-04-12T04:57:17.903Z,6.50
2023-04-12T04:58:20.696Z,7.20
2023-04-12T04:59:23.243Z,6.70
2023-04-12T05:00:38.795Z,6.80
2023-04-12T05:01:42.286Z,7.40
2023-04-12T05:02:44.716Z,6.30
2023-04-12T05:03:49.158Z,7.20
2023-04-12T05:06:04.870Z,8.00
2023-04-12T05:08:25.264Z,8.10
2023-04-12T05:09:28.020Z,7.40
2023-04-12T05:10:32.056Z,6.40
2023-04-12T05:11:36.181Z,6.60
2023-04-12T05:12:38.928Z,7.82
2023-04-12T05:13:41.213Z,6.80
2023-04-12T05:14:47.974Z,7.90
2023-04-12T05:15:49.351Z,7.00
2023-04-12T05:16:51.683Z,7.30
2023-04-12T05:17:54.422Z,7.20
2023-04-12T05:18:56.879Z,8.10
2023-04-12T05:20:00.492Z,8.30
2023-04-12T05:21:03.756Z,8.50
2023-04-12T05:22:06.296Z,7.90
2023-04-12T05:23:09.363Z,7.82
2023-04-12T05:24:11.887Z,9.10
2023-04-12T05:25:15.378Z,7.70
2023-04-12T05:26:19.834Z,7.80
2023-04-12T05:27:24.260Z,7.40
2023-04-12T05:28:27.462Z,7.09
2023-04-12T05:29:31.698Z,9.00
2023-04-12T05:30:34.139Z,7.30
2023-04-12T05:31:37.652Z,7.20
2023-04-12T05:32:42.037Z,7.80
2023-04-12T05:33:45.752Z,6.91
2023-04-12T05:34:48.479Z,7.20
2023-04-12T05:35:50.642Z,7.60
2023-04-12T05:36:53.112Z,7.70
2023-04-12T05:37:56.178Z,7.73
2023-04-12T05:38:59.425Z,7.50
2023-04-12T05:40:02.189Z,6.60
2023-04-12T05:41:06.154Z,6.40
2023-04-12T05:42:09.290Z,6.50
2023-04-12T05:43:11.607Z,7.40
2023-04-12T05:44:15.201Z,6.50
2023-04-12T05:45:17.862Z,7.80
2023-04-12T05:46:21.415Z,6.70
2023-04-12T05:47:25.448Z,6.20
2023-04-12T05:48:28.683Z,6.60
2023-04-12T05:49:33.059Z,4.10
2023-04-12T05:50:36.758Z,6.30
2023-04-12T05:51:41.300Z,7.20
2023-04-12T05:52:45.525Z,6.50
2023-04-12T05:53:48.200Z,6.30
2023-04-12T05:54:52.208Z,5.90
2023-04-12T05:55:55.322Z,7.00
2023-04-12T05:56:58.144Z,7.00
2023-04-12T05:58:00.991Z,6.91
2023-04-12T05:59:04.957Z,6.40
2023-04-12T06:00:10.870Z,6.80
2023-04-12T06:01:16.888Z,4.90
2023-04-12T06:02:20.336Z,6.50
2023-04-12T06:03:23.463Z,6.40
2023-04-12T06:04:34.948Z,7.10
2023-04-12T06:05:30.797Z,5.90
2023-04-12T06:06:33.712Z,6.64
2023-04-12T06:07:38.655Z,5.90
2023-04-12T06:08:40.882Z,7.10
2023-04-12T06:09:42.950Z,6.80
2023-04-12T06:10:45.643Z,7.30
2023-04-12T06:11:48.303Z,7.30
2023-04-12T06:12:50.610Z,5.60
2023-04-12T06:13:55.751Z,7.60
2023-04-12T06:14:59.545Z,6.80
2023-04-12T06:16:02.522Z,7.30
2023-04-12T06:17:05.134Z,6.90
2023-04-12T06:18:08.688Z,7.50
2023-04-12T06:19:11.108Z,7.20
2023-04-12T06:20:13.996Z,5.91
2023-04-12T06:21:16.474Z,7.20
2023-04-12T06:22:19.288Z,6.50
2023-04-12T06:23:22.353Z,6.45
2023-04-12T06:24:26.209Z,6.40
2023-04-12T06:25:28.834Z,7.80
2023-04-12T06:26:39.831Z,7.40
2023-04-12T06:27:37.913Z,6.80
2023-04-12T06:28:41.598Z,6.30
2023-04-12T06:29:44.342Z,7.00
2023-04-12T06:30:47.858Z,6.45
2023-04-12T06:31:50.044Z,7.10
2023-04-12T06:32:52.400Z,7.10
2023-04-12T06:33:55.118Z,6.00
2023-04-12T06:34:57.312Z,6.50
2023-04-12T06:36:00.130Z,6.00
2023-04-12T06:37:02.556Z,6.09
2023-04-12T06:38:04.785Z,6.70
2023-04-12T06:39:09.363Z,7.60
2023-04-12T06:40:13.233Z,6.00
2023-04-12T06:41:16.048Z,7.60
2023-04-12T06:42:18.101Z,7.80
2023-04-12T06:43:20.277Z,5.90
2023-04-12T06:44:22.448Z,6.90
2023-04-12T06:45:24.527Z,6.30
2023-04-12T06:46:27.990Z,6.80
2023-04-12T06:47:31.760Z,7.50
2023-04-12T06:48:34.547Z,7.00
2023-04-12T06:49:38.009Z,7.10
2023-04-12T06:50:41.370Z,6.20
2023-04-12T06:51:43.949Z,5.20
2023-04-12T06:52:46.998Z,7.60
2023-04-12T06:53:50.191Z,6.00
2023-04-12T06:54:53.200Z,7.20
2023-04-12T06:55:55.494Z,5.80
2023-04-12T06:56:57.712Z,6.20
2023-04-12T06:58:00.156Z,6.20
2023-04-12T06:59:03.345Z,5.20
2023-04-12T07:00:08.003Z,6.80
2023-04-12T07:01:10.390Z,6.80
2023-04-12T07:02:13.056Z,6.30
2023-04-12T07:03:15.489Z,7.20
2023-04-12T07:04:18.715Z,5.80
2023-04-12T07:05:22.141Z,6.27
2023-04-12T07:06:28.010Z,7.10
2023-04-12T07:07:30.365Z,7.00
2023-04-12T07:08:35.782Z,5.60
2023-04-12T07:09:38.785Z,6.80
2023-04-12T07:10:41.117Z,6.30
2023-04-12T07:11:45.443Z,6.30
2023-04-12T07:12:54.713Z,5.30
2023-04-12T07:13:57.055Z,6.00
2023-04-12T07:15:00.569Z,6.40
2023-04-12T07:16:04.212Z,5.50
2023-04-12T07:17:06.997Z,5.60
2023-04-12T07:18:09.148Z,6.10
2023-04-12T07:19:11.644Z,5.90
2023-04-12T07:20:14.480Z,6.20
2023-04-12T07:21:17.415Z,6.27
2023-04-12T07:22:20.129Z,6.00
2023-04-12T07:23:25.006Z,6.82
2023-04-12T07:24:27.304Z,5.50
2023-04-12T07:25:32.164Z,5.70
2023-04-12T07:26:34.657Z,6.10
2023-04-12T07:27:40.483Z,6.20
2023-04-12T07:28:42.478Z,5.70
2023-04-12T07:29:44.989Z,6.20
2023-04-12T07:30:47.408Z,5.30
2023-04-12T07:31:49.684Z,6.30
2023-04-12T07:33:00.313Z,5.60
2023-04-12T07:33:59.924Z,6.10
2023-04-12T07:35:02.499Z,7.40
2023-04-12T07:36:05.606Z,6.00
2023-04-12T07:37:07.827Z,3.73
2023-04-12T07:38:11.272Z,5.90
2023-04-12T07:39:14.789Z,6.90
2023-04-12T07:40:18.529Z,5.80
2023-04-12T07:41:24.039Z,7.40
2023-04-12T07:42:28.508Z,5.50
2023-04-12T07:43:33.307Z,5.90
2023-04-12T07:44:38.445Z,5.30
2023-04-12T07:45:40.712Z,5.60
2023-04-12T07:46:42.927Z,5.80
2023-04-12T07:47:48.888Z,7.00
2023-04-12T07:48:54.862Z,4.90
2023-04-12T07:49:56.948Z,4.20
2023-04-12T07:51:05.605Z,5.20
2023-04-12T07:52:09.050Z,6.20
2023-04-12T07:53:27.253Z,6.00
2023-04-12T07:54:30.486Z,5.00
2023-04-12T07:55:35.798Z,5.50
2023-04-12T07:56:41.303Z,5.60
2023-04-12T07:57:45.441Z,5.80
2023-04-12T07:58:48.633Z,5.10
2023-04-12T07:59:51.299Z,6.30
2023-04-12T08:01:01.216Z,5.10
2023-04-12T08:02:12.325Z,4.90
2023-04-12T08:03:17.807Z,5.00
2023-04-12T08:04:22.320Z,5.50
2023-04-12T08:05:28.954Z,5.40
2023-04-12T08:06:36.475Z,4.80
2023-04-12T08:07:42.472Z,5.00
2023-04-12T08:10:19.260Z,6.60
2023-04-12T08:12:34.782Z,5.60
2023-04-12T08:13:39.115Z,5.80
2023-04-12T08:14:44.367Z,6.00
2023-04-12T08:15:48.920Z,4.90
2023-04-12T08:16:52.947Z,5.60
2023-04-12T08:18:04.642Z,5.80
2023-04-12T08:19:09.959Z,5.70
2023-04-12T08:20:14.097Z,6.30
2023-04-12T08:21:16.158Z,5.09
2023-04-12T08:22:23.668Z,5.80
2023-04-12T08:23:25.948Z,5.20
2023-04-12T08:24:28.853Z,5.70
2023-04-12T08:25:32.805Z,5.50
2023-04-12T08:26:37.055Z,5.82
2023-04-12T08:27:45.204Z,4.10
2023-04-12T08:28:49.180Z,4.80
2023-04-12T08:29:52.420Z,5.30
2023-04-12T08:30:54.798Z,4.80
2023-04-12T08:32:01.300Z,4.90
2023-04-12T08:33:04.675Z,5.80
2023-04-12T08:34:07.010Z,5.50
2023-04-12T08:35:12.926Z,5.20
2023-04-12T08:36:16.900Z,5.20
2023-04-12T08:37:23.944Z,4.36
2023-04-12T08:38:41.272Z,5.50
2023-04-12T08:39:33.655Z,5.50
2023-04-12T08:40:41.846Z,4.80
2023-04-12T08:41:45.291Z,5.10
2023-04-12T08:42:52.325Z,5.10
2023-04-12T08:43:55.080Z,5.50
2023-04-12T08:46:18.120Z,6.20
2023-04-12T08:47:24.290Z,5.10
2023-04-12T08:48:30.501Z,5.40
2023-04-12T08:49:41.497Z,4.70
2023-04-12T08:50:47.029Z,5.40
2023-04-12T08:51:54.514Z,4.80
2023-04-12T08:52:59.880Z,5.80
2023-04-12T08:54:04.897Z,5.60
2023-04-12T08:55:11.156Z,5.20
2023-04-12T08:56:16.213Z,5.00
2023-04-12T08:57:33.235Z,5.20
2023-04-12T08:58:42.188Z,5.30
2023-04-12T08:59:45.572Z,5.80
2023-04-12T09:00:48.739Z,4.10
2023-04-12T09:03:01.888Z,5.10
2023-04-12T09:04:10.305Z,4.70
2023-04-12T09:05:16.266Z,5.10
2023-04-12T09:06:22.024Z,4.40
2023-04-12T09:07:28.366Z,4.70
2023-04-12T09:09:46.850Z,4.80
2023-04-12T09:10:52.029Z,4.30
2023-04-12T09:13:08.574Z,4.50
2023-04-12T09:14:22.006Z,4.70
2023-04-12T09:15:28.034Z,4.60
2023-04-12T09:16:42.695Z,4.60
2023-04-12T09:17:45.741Z,5.50
2023-04-12T09:18:52.537Z,5.70
2023-04-12T09:19:58.053Z,4.60
2023-04-12T09:21:13.400Z,4.40
2023-04-12T09:22:20.321Z,5.90
2023-04-12T09:23:24.314Z,4.80
2023-04-12T09:24:35.152Z,3.90
2023-04-12T09:25:42.778Z,4.90
2023-04-12T09:26:45.421Z,0.90
2023-04-12T09:27:52.388Z,4.80
2023-04-12T09:28:54.960Z,3.70
2023-04-12T09:30:08.181Z,4.40
2023-04-12T09:31:13.994Z,4.40
2023-04-12T09:32:25.451Z,4.10
2023-04-12T09:33:38.201Z,4.60
2023-04-12T09:34:45.065Z,4.20
2023-04-12T09:35:52.668Z,5.00
2023-04-12T09:36:58.224Z,5.00
2023-04-12T09:38:15.356Z,3.30
2023-04-12T09:39:19.525Z,4.20
2023-04-12T09:40:32.765Z,4.30
2023-04-12T09:41:40.153Z,4.60
2023-04-12T09:42:54.867Z,5.70
2023-04-12T09:44:02.397Z,4.40
2023-04-12T09:46:29.766Z,4.70
2023-04-12T09:47:40.638Z,4.90
2023-04-12T09:48:53.424Z,6.80
2023-04-12T09:49:55.521Z,5.40
2023-04-12T09:50:59.548Z,6.60
2023-04-12T09:52:02.280Z,5.40
2023-04-12T09:53:09.909Z,5.90
2023-04-12T09:54:15.410Z,5.00
2023-04-12T09:55:20.840Z,4.30
2023-04-12T09:56:25.340Z,5.60
2023-04-12T09:57:28.037Z,5.20
2023-04-12T09:58:31.833Z,4.40
2023-04-12T10:00:49.546Z,4.40
2023-04-12T10:01:54.652Z,4.20
2023-04-12T10:02:58.977Z,4.00
2023-04-12T10:04:05.111Z,4.60
2023-04-12T10:05:15.450Z,4.50
2023-04-12T10:06:18.314Z,3.40
2023-04-12T10:07:20.460Z,3.50
2023-04-12T10:08:24.641Z,4.00
2023-04-12T10:09:30.784Z,5.30
2023-04-12T10:10:35.127Z,3.90
2023-04-12T10:11:37.921Z,4.80
2023-04-12T10:12:41.344Z,4.27
2023-04-12T10:13:46.515Z,4.00
2023-04-12T10:14:52.491Z,4.60
2023-04-12T10:17:27.594Z,3.20
2023-04-12T10:18:36.958Z,3.30
2023-04-12T10:19:39.683Z,5.00
2023-04-12T10:20:44.858Z,4.20
2023-04-12T10:21:56.950Z,3.40
2023-04-12T10:23:00.263Z,4.80
2023-04-12T10:24:09.165Z,4.30
2023-04-12T10:25:16.412Z,4.30
2023-04-12T10:26:20.832Z,4.20
2023-04-12T10:27:28.310Z,4.50
2023-04-12T10:28:30.777Z,4.00
2023-04-12T10:29:33.236Z,5.20
2023-04-12T10:30:37.235Z,4.90
2023-04-12T10:31:40.539Z,1.00
2023-04-12T10:32:45.366Z,4.50
2023-04-12T10:33:49.228Z,4.18
2023-04-12T10:34:58.175Z,4.30
2023-04-12T10:36:03.199Z,4.30
2023-04-12T10:37:05.696Z,4.10
2023-04-12T10:38:08.864Z,4.40
2023-04-12T10:39:11.429Z,5.80
2023-04-12T10:40:17.514Z,4.90
2023-04-12T10:41:22.822Z,4.50
2023-04-12T10:42:30.313Z,5.00
2023-04-12T10:43:36.350Z,4.70
2023-04-12T10:44:39.800Z,3.90
2023-04-12T10:45:47.416Z,4.80
2023-04-12T10:46:51.311Z,4.50
2023-04-12T10:47:58.003Z,5.10
2023-04-12T10:49:13.322Z,4.90
2023-04-12T10:50:36.960Z,5.20
2023-04-12T10:54:33.409Z,4.50
2023-04-12T10:55:42.288Z,5.70
2023-04-12T10:56:54.494Z,5.20
2023-04-12T10:58:09.396Z,5.50
2023-04-12T10:59:15.001Z,6.30
2023-04-12T11:00:22.707Z,6.00
2023-04-12T11:01:28.379Z,5.50
2023-04-12T11:02:34.678Z,5.70
2023-04-12T11:03:58.489Z,5.80
2023-04-12T11:05:09.847Z,5.40
2023-04-12T11:06:49.902Z,5.30
2023-04-12T11:09:36.142Z,6.80
2023-04-12T11:10:40.537Z,6.10
2023-04-12T11:11:45.496Z,5.70
2023-04-12T11:12:49.779Z,3.91
2023-04-12T11:13:54.339Z,4.60
2023-04-12T11:15:01.910Z,5.30
2023-04-12T11:16:08.850Z,5.50
2023-04-12T11:17:18.045Z,6.00
2023-04-12T11:18:21.811Z,6.10
2023-04-12T11:19:24.883Z,5.70
2023-04-12T11:21:43.728Z,5.40
2023-04-12T11:22:47.433Z,6.10
2023-04-12T11:23:51.799Z,4.50
2023-04-12T11:24:57.838Z,6.00
2023-04-12T11:27:13.614Z,5.90
2023-04-12T11:28:29.865Z,5.30
2023-04-12T11:29:29.247Z,5.40
2023-04-12T11:30:31.585Z,4.30
2023-04-12T11:31:34.187Z,5.89
2023-04-12T11:33:46.422Z,0.20
2023-04-12T11:34:49.283Z,4.70
2023-04-12T11:35:51.551Z,4.73
2023-04-12T11:36:55.845Z,4.00
2023-04-12T11:37:58.093Z,4.80
2023-04-12T11:39:02.150Z,4.40
2023-04-12T11:40:07.507Z,4.70
2023-04-12T11:41:11.132Z,4.00
2023-04-12T11:42:21.753Z,5.30
2023-04-12T11:43:24.931Z,3.30
2023-04-12T11:44:27.258Z,4.30
2023-04-12T11:45:29.426Z,4.40
2023-04-12T11:46:35.947Z,4.30
2023-04-12T11:47:43.254Z,0.20
2023-04-12T11:48:45.565Z,4.80
2023-04-12T11:51:10.873Z,5.50
2023-04-12T11:52:06.147Z,4.70
2023-04-12T11:53:14.554Z,4.10
2023-04-12T11:54:18.065Z,4.30
2023-04-12T11:55:21.113Z,4.00
2023-04-12T11:56:25.286Z,4.30
2023-04-12T11:57:27.768Z,4.60
2023-04-12T11:58:29.824Z,4.40
2023-04-12T11:59:34.751Z,4.10
2023-04-12T12:00:43.495Z,2.50
2023-04-12T12:01:46.011Z,4.50
2023-04-12T12:03:04.395Z,3.80
2023-04-12T12:03:55.270Z,3.40
2023-04-12T12:04:58.445Z,4.00
2023-04-12T12:06:03.496Z,4.82
2023-04-12T12:07:09.677Z,4.50
2023-04-12T12:08:12.828Z,4.00
2023-04-12T12:09:17.826Z,3.64
2023-04-12T12:10:37.625Z,3.20
2023-04-12T12:11:27.605Z,4.70
2023-04-12T12:12:29.902Z,4.10
2023-04-12T12:13:54.709Z,3.80
2023-04-12T12:14:59.425Z,3.80
2023-04-12T12:16:05.056Z,4.60
2023-04-12T12:17:13.790Z,4.50
2023-04-12T12:18:18.498Z,4.40
2023-04-12T12:19:32.908Z,4.10
2023-04-12T12:20:51.062Z,3.40
2023-04-12T12:21:54.434Z,3.40
2023-04-12T12:22:57.593Z,3.80
2023-04-12T12:24:01.034Z,4.10
2023-04-12T12:25:10.962Z,4.70
2023-04-12T12:26:26.384Z,3.70
2023-04-12T12:27:40.629Z,3.80
2023-04-12T12:28:57.789Z,3.90
2023-04-12T12:30:06.217Z,4.00
2023-04-12T12:31:11.693Z,3.20
2023-04-12T12:32:23.802Z,4.50
2023-04-12T12:33:46.389Z,0.90
2023-04-12T12:34:58.082Z,4.40
2023-04-12T12:36:00.301Z,4.00
2023-04-12T12:37:10.647Z,0.00
2023-04-12T12:38:14.732Z,4.40
2023-04-12T12:39:17.157Z,4.40
2023-04-12T12:40:30.464Z,4.40
2023-04-12T12:41:34.831Z,4.30
2023-04-12T12:42:39.231Z,4.20
2023-04-12T12:43:47.388Z,3.80
2023-04-12T12:44:49.635Z,4.60
2023-04-12T12:45:52.500Z,4.10
2023-04-12T12:47:00.768Z,3.70
2023-04-12T12:48:01.607Z,4.20
2023-04-12T12:49:03.846Z,4.30
2023-04-12T12:50:07.308Z,3.90
2023-04-12T12:52:20.770Z,4.90
2023-04-12T12:53:31.173Z,3.70
2023-04-12T12:54:41.104Z,3.80
2023-04-12T12:55:40.624Z,4.30
2023-04-12T12:56:48.914Z,3.90
2023-04-12T12:58:06.131Z,4.50
2023-04-12T12:59:01.452Z,4.10
2023-04-12T13:00:06.357Z,4.70
2023-04-12T13:01:10.619Z,4.60
2023-04-12T13:02:14.007Z,4.20
2023-04-12T13:03:18.251Z,3.90
2023-04-12T13:04:22.952Z,4.00
2023-04-12T13:05:25.789Z,0.00
2023-04-12T13:07:51.226Z,4.60
2023-04-12T13:08:55.131Z,4.50
2023-04-12T13:10:00.672Z,4.60
2023-04-12T13:11:06.779Z,4.10
2023-04-12T13:12:09.142Z,4.73
2023-04-12T13:13:14.780Z,3.80
2023-04-12T13:14:19.295Z,5.30
2023-04-12T13:15:24.159Z,4.60
2023-04-12T13:16:29.680Z,5.60
2023-04-12T13:17:35.104Z,4.90
2023-04-12T13:18:39.689Z,5.90
2023-04-12T13:19:41.963Z,4.40
2023-04-12T13:20:45.336Z,5.50
2023-04-12T13:21:51.174Z,5.27
2023-04-12T13:22:55.343Z,5.40
2023-04-12T13:23:57.491Z,5.20
2023-04-12T13:25:01.010Z,5.60
2023-04-12T13:26:05.168Z,5.00
2023-04-12T13:27:13.941Z,4.80
2023-04-12T13:28:19.955Z,4.80
2023-04-12T13:29:23.459Z,3.70
2023-04-12T13:30:29.332Z,4.60
2023-04-12T13:31:33.431Z,4.50
2023-04-12T13:32:38.377Z,4.30
2023-04-12T13:33:43.244Z,4.70
2023-04-12T13:34:49.464Z,2.50
2023-04-12T13:35:54.149Z,4.60
2023-04-12T13:36:57.092Z,4.90
2023-04-12T13:37:59.273Z,4.55
2023-04-12T13:39:04.733Z,4.70
2023-04-12T13:40:10.700Z,4.50
2023-04-12T13:41:12.905Z,4.50
2023-04-12T13:42:15.459Z,4.50
2023-04-12T13:43:17.782Z,4.50
2023-04-12T13:44:20.173Z,4.20
2023-04-12T13:45:24.714Z,4.10
2023-04-12T13:46:27.267Z,5.00
2023-04-12T13:47:30.239Z,4.80
2023-04-12T13:48:32.638Z,5.18
2023-04-12T13:49:34.953Z,4.00
2023-04-12T13:50:37.264Z,4.20
2023-04-12T13:51:43.677Z,4.50
2023-04-12T13:52:47.182Z,5.00
2023-04-12T13:53:50.183Z,4.90
2023-04-12T13:54:52.453Z,5.00
2023-04-12T13:55:55.139Z,5.70
2023-04-12T13:56:57.504Z,4.91
2023-04-12T13:57:59.657Z,5.90
2023-04-12T13:59:07.490Z,6.00
2023-04-12T14:00:11.444Z,5.10
2023-04-12T14:01:14.281Z,6.00
2023-04-12T14:02:18.887Z,6.30
2023-04-12T14:03:24.600Z,6.30
2023-04-12T14:04:30.384Z,6.40
2023-04-12T14:05:35.123Z,5.50
2023-04-12T14:07:50.096Z,7.40
2023-04-12T14:08:52.360Z,5.90
2023-04-12T14:09:54.522Z,7.10
2023-04-12T14:10:57.877Z,7.10
2023-04-12T14:12:01.035Z,6.18
2023-04-12T14:13:06.141Z,4.80
2023-04-12T14:14:09.011Z,5.90
2023-04-12T14:15:11.537Z,4.82
2023-04-12T14:16:14.148Z,5.60
2023-04-12T14:17:19.925Z,4.00
2023-04-12T14:18:23.206Z,5.80
2023-04-12T14:19:28.084Z,4.80
2023-04-12T14:20:30.262Z,5.36
2023-04-12T14:21:32.911Z,4.70
2023-04-12T14:22:35.847Z,5.70
2023-04-12T14:23:38.612Z,4.09
2023-04-12T14:24:40.836Z,4.30
2023-04-12T14:26:55.173Z,5.00
2023-04-12T14:27:58.772Z,4.91
2023-04-12T14:29:01.036Z,4.80
2023-04-12T14:30:06.397Z,2.00
2023-04-12T14:31:10.065Z,5.30
2023-04-12T14:32:13.129Z,4.70
2023-04-12T14:33:16.025Z,4.82
2023-04-12T14:34:20.602Z,2.60
2023-04-12T14:35:26.044Z,4.80
2023-04-12T14:36:28.632Z,4.50
2023-04-12T14:37:31.416Z,4.20
2023-04-12T14:38:47.112Z,4.91
2023-04-12T14:39:55.825Z,3.70
2023-04-12T14:40:58.381Z,5.20
2023-04-12T14:42:01.220Z,4.70
2023-04-12T14:43:04.169Z,7.18
2023-04-12T14:44:11.322Z,6.70
2023-04-12T14:45:13.555Z,6.50
2023-04-12T14:46:21.953Z,6.45
2023-04-12T14:47:26.933Z,5.80
2023-04-12T14:48:29.935Z,6.50
2023-04-12T14:49:33.650Z,6.09
2023-04-12T14:50:38.384Z,5.80
2023-04-12T14:51:40.587Z,5.50
2023-04-12T14:52:45.588Z,7.00
2023-04-12T14:53:49.855Z,5.30